sensor_id;sensor_type;location;lat;lon;timestamp;temperature;humidity
21522;DHT22;10922;45.572;10.002;2023-04-29T00:01:56;15.30;99.90
21522;DHT22;10922;45.572;10.002;2023-04-29T00:04:24;15.20;99.90
21522;DHT22;10922;45.572;10.002;2023-04-29T00:06:50;15.30;99.90
21522;DHT22;10922;45.572;10.002;2023-04-29T00:09:16;15.20;99.90
21522;DHT22;10922;45.572;10.002;2023-04-29T00:11:41;15.20;99.90
21522;DHT22;10922;45.572;10.002;2023-04-29T00:14:07;15.30;99.90
21522;DHT22;10922;45.572;10.002;2023-04-29T00:16:33;15.20;99.90
21522;DHT22;10922;45.572;10.002;2023-04-29T00:18:58;15.20;99.90
21522;DHT22;10922;45.572;10.002;2023-04-29T00:21:24;15.30;99.90
21522;DHT22;10922;45.572;10.002;2023-04-29T00:23:52;15.30;99.90
21522;DHT22;10922;45.572;10.002;2023-04-29T00:26:17;15.30;99.90
21522;DHT22;10922;45.572;10.002;2023-04-29T00:28:43;15.40;99.90
21522;DHT22;10922;45.572;10.002;2023-04-29T00:31:09;15.40;99.90
21522;DHT22;10922;45.572;10.002;2023-04-29T00:33:35;15.40;99.90
21522;DHT22;10922;45.572;10.002;2023-04-29T00:36:01;15.50;99.90
21522;DHT22;10922;45.572;10.002;2023-04-29T00:38:27;15.50;99.90
21522;DHT22;10922;45.572;10.002;2023-04-29T00:40:53;15.50;99.90
21522;DHT22;10922;45.572;10.002;2023-04-29T00:43:20;15.40;99.90
21522;DHT22;10922;45.572;10.002;2023-04-29T00:45:45;15.30;99.90
21522;DHT22;10922;45.572;10.002;2023-04-29T00:48:11;15.30;99.90
21522;DHT22;10922;45.572;10.002;2023-04-29T00:50:39;15.20;99.90
21522;DHT22;10922;45.572;10.002;2023-04-29T00:53:05;15.20;99.90
21522;DHT22;10922;45.572;10.002;2023-04-29T00:55:32;15.20;99.90
21522;DHT22;10922;45.572;10.002;2023-04-29T00:57:58;15.20;99.90
21522;DHT22;10922;45.572;10.002;2023-04-29T01:00:24;15.20;99.90
21522;DHT22;10922;45.572;10.002;2023-04-29T01:02:51;15.30;99.90
21522;DHT22;10922;45.572;10.002;2023-04-29T01:05:18;15.30;99.90
21522;DHT22;10922;45.572;10.002;2023-04-29T01:08:02;15.30;99.90
21522;DHT22;10922;45.572;10.002;2023-04-29T01:13:36;15.30;99.90
21522;DHT22;10922;45.572;10.002;2023-04-29T01:16:10;15.30;99.90
21522;DHT22;10922;45.572;10.002;2023-04-29T01:18:43;15.30;99.90
21522;DHT22;10922;45.572;10.002;2023-04-29T01:21:10;15.30;99.90
21522;DHT22;10922;45.572;10.002;2023-04-29T01:23:36;15.30;99.90
21522;DHT22;10922;45.572;10.002;2023-04-29T01:26:01;15.30;99.90
21522;DHT22;10922;45.572;10.002;2023-04-29T01:31:10;15.20;99.90
21522;DHT22;10922;45.572;10.002;2023-04-29T01:36:26;15.10;99.90
21522;DHT22;10922;45.572;10.002;2023-04-29T01:39:12;15.20;99.90
21522;DHT22;10922;45.572;10.002;2023-04-29T01:41:49;15.20;99.90
21522;DHT22;10922;45.572;10.002;2023-04-29T01:44:19;15.10;99.90
21522;DHT22;10922;45.572;10.002;2023-04-29T01:46:50;15.10;99.90
21522;DHT22;10922;45.572;10.002;2023-04-29T01:49:28;15.00;99.90
21522;DHT22;10922;45.572;10.002;2023-04-29T01:51:54;14.90;99.90
21522;DHT22;10922;45.572;10.002;2023-04-29T01:54:20;14.90;99.90
21522;DHT22;10922;45.572;10.002;2023-04-29T01:56:49;14.80;99.90
21522;DHT22;10922;45.572;10.002;2023-04-29T01:59:16;14.80;99.90
21522;DHT22;10922;45.572;10.002;2023-04-29T02:01:41;14.90;99.90
21522;DHT22;10922;45.572;10.002;2023-04-29T02:04:08;14.90;99.90
21522;DHT22;10922;45.572;10.002;2023-04-29T02:06:33;15.00;99.90
21522;DHT22;10922;45.572;10.002;2023-04-29T02:08:59;15.10;99.90
21522;DHT22;10922;45.572;10.002;2023-04-29T02:11:25;15.10;99.90
21522;DHT22;10922;45.572;10.002;2023-04-29T02:13:51;15.10;99.90
21522;DHT22;10922;45.572;10.002;2023-04-29T02:16:16;15.10;99.90
21522;DHT22;10922;45.572;10.002;2023-04-29T02:18:43;15.00;99.90
21522;DHT22;10922;45.572;10.002;2023-04-29T02:21:08;15.00;99.90
21522;DHT22;10922;45.572;10.002;2023-04-29T02:23:35;15.00;99.90
21522;DHT22;10922;45.572;10.002;2023-04-29T02:26:01;15.00;99.90
21522;DHT22;10922;45.572;10.002;2023-04-29T02:28:28;15.10;99.90
21522;DHT22;10922;45.572;10.002;2023-04-29T02:30:53;15.10;99.90
21522;DHT22;10922;45.572;10.002;2023-04-29T02:33:19;15.00;99.90
21522;DHT22;10922;45.572;10.002;2023-04-29T02:35:45;15.00;99.90
21522;DHT22;10922;45.572;10.002;2023-04-29T02:38:10;15.00;99.90
21522;DHT22;10922;45.572;10.002;2023-04-29T02:40:44;15.00;99.90
21522;DHT22;10922;45.572;10.002;2023-04-29T02:43:10;15.00;99.90
21522;DHT22;10922;45.572;10.002;2023-04-29T02:45:37;14.90;99.90
21522;DHT22;10922;45.572;10.002;2023-04-29T02:48:03;14.90;99.90
21522;DHT22;10922;45.572;10.002;2023-04-29T02:50:29;14.90;99.90
21522;DHT22;10922;45.572;10.002;2023-04-29T02:52:54;14.90;99.90
21522;DHT22;10922;45.572;10.002;2023-04-29T02:55:20;14.90;99.90
21522;DHT22;10922;45.572;10.002;2023-04-29T02:57:46;14.90;99.90
21522;DHT22;10922;45.572;10.002;2023-04-29T03:00:12;14.90;99.90
21522;DHT22;10922;45.572;10.002;2023-04-29T03:02:38;14.90;99.90
21522;DHT22;10922;45.572;10.002;2023-04-29T03:05:04;14.90;99.90
21522;DHT22;10922;45.572;10.002;2023-04-29T03:07:30;14.90;99.90
21522;DHT22;10922;45.572;10.002;2023-04-29T03:09:56;14.80;99.90
21522;DHT22;10922;45.572;10.002;2023-04-29T03:12:22;14.80;99.90
21522;DHT22;10922;45.572;10.002;2023-04-29T03:14:48;14.80;99.90
21522;DHT22;10922;45.572;10.002;2023-04-29T03:17:14;14.80;99.90
21522;DHT22;10922;45.572;10.002;2023-04-29T03:19:40;14.80;99.90
21522;DHT22;10922;45.572;10.002;2023-04-29T03:22:06;14.70;99.90
21522;DHT22;10922;45.572;10.002;2023-04-29T03:24:34;14.70;99.90
21522;DHT22;10922;45.572;10.002;2023-04-29T03:27:00;14.70;99.90
21522;DHT22;10922;45.572;10.002;2023-04-29T03:29:25;14.70;99.90
21522;DHT22;10922;45.572;10.002;2023-04-29T03:31:52;14.70;99.90
21522;DHT22;10922;45.572;10.002;2023-04-29T03:34:18;14.70;99.90
21522;DHT22;10922;45.572;10.002;2023-04-29T03:36:44;14.70;99.90
21522;DHT22;10922;45.572;10.002;2023-04-29T03:39:10;14.70;99.90
21522;DHT22;10922;45.572;10.002;2023-04-29T03:41:37;14.70;99.90
21522;DHT22;10922;45.572;10.002;2023-04-29T03:44:03;14.70;99.90
21522;DHT22;10922;45.572;10.002;2023-04-29T03:46:29;14.70;99.90
21522;DHT22;10922;45.572;10.002;2023-04-29T03:48:55;14.70;99.90
21522;DHT22;10922;45.572;10.002;2023-04-29T03:51:24;14.70;99.90
21522;DHT22;10922;45.572;10.002;2023-04-29T03:53:50;14.70;99.90
21522;DHT22;10922;45.572;10.002;2023-04-29T03:56:17;14.70;99.90
21522;DHT22;10922;45.572;10.002;2023-04-29T03:58:42;14.70;99.90
21522;DHT22;10922;45.572;10.002;2023-04-29T04:01:08;14.70;99.90
21522;DHT22;10922;45.572;10.002;2023-04-29T04:03:33;14.70;99.90
21522;DHT22;10922;45.572;10.002;2023-04-29T04:06:00;14.70;99.90
21522;DHT22;10922;45.572;10.002;2023-04-29T04:08:25;14.70;99.90
21522;DHT22;10922;45.572;10.002;2023-04-29T04:10:51;14.70;99.90
21522;DHT22;10922;45.572;10.002;2023-04-29T04:13:16;14.70;99.90
21522;DHT22;10922;45.572;10.002;2023-04-29T04:15:49;14.80;99.90
21522;DHT22;10922;45.572;10.002;2023-04-29T04:18:15;14.80;99.90
21522;DHT22;10922;45.572;10.002;2023-04-29T04:20:41;14.80;99.90
21522;DHT22;10922;45.572;10.002;2023-04-29T04:23:06;14.80;99.90
21522;DHT22;10922;45.572;10.002;2023-04-29T04:25:32;14.80;99.90
21522;DHT22;10922;45.572;10.002;2023-04-29T04:27:58;14.90;99.90
21522;DHT22;10922;45.572;10.002;2023-04-29T04:30:23;14.90;99.90
21522;DHT22;10922;45.572;10.002;2023-04-29T04:32:49;14.90;99.90
21522;DHT22;10922;45.572;10.002;2023-04-29T04:35:14;14.90;99.90
21522;DHT22;10922;45.572;10.002;2023-04-29T04:37:40;14.90;99.90
21522;DHT22;10922;45.572;10.002;2023-04-29T04:40:06;14.90;99.90
21522;DHT22;10922;45.572;10.002;2023-04-29T04:42:32;15.00;99.90
21522;DHT22;10922;45.572;10.002;2023-04-29T04:44:58;15.00;99.90
21522;DHT22;10922;45.572;10.002;2023-04-29T04:47:24;15.10;99.90
21522;DHT22;10922;45.572;10.002;2023-04-29T04:49:49;15.20;99.90
21522;DHT22;10922;45.572;10.002;2023-04-29T04:52:19;15.30;99.90
21522;DHT22;10922;45.572;10.002;2023-04-29T04:54:45;15.40;99.90
21522;DHT22;10922;45.572;10.002;2023-04-29T04:57:11;15.40;99.90
21522;DHT22;10922;45.572;10.002;2023-04-29T04:59:37;15.30;99.90
21522;DHT22;10922;45.572;10.002;2023-04-29T05:02:02;15.40;99.90
21522;DHT22;10922;45.572;10.002;2023-04-29T05:04:28;15.40;99.90
21522;DHT22;10922;45.572;10.002;2023-04-29T05:06:53;15.40;99.90
21522;DHT22;10922;45.572;10.002;2023-04-29T05:09:19;15.40;99.90
21522;DHT22;10922;45.572;10.002;2023-04-29T05:11:45;15.50;99.90
21522;DHT22;10922;45.572;10.002;2023-04-29T05:14:11;15.60;99.90
21522;DHT22;10922;45.572;10.002;2023-04-29T05:16:36;15.70;99.90
21522;DHT22;10922;45.572;10.002;2023-04-29T05:19:02;15.70;99.90
21522;DHT22;10922;45.572;10.002;2023-04-29T05:21:28;15.80;99.90
21522;DHT22;10922;45.572;10.002;2023-04-29T05:23:54;15.90;99.90
21522;DHT22;10922;45.572;10.002;2023-04-29T05:26:19;16.10;99.90
21522;DHT22;10922;45.572;10.002;2023-04-29T05:28:45;16.00;99.90
21522;DHT22;10922;45.572;10.002;2023-04-29T05:31:11;16.10;99.90
21522;DHT22;10922;45.572;10.002;2023-04-29T05:33:37;16.30;99.90
21522;DHT22;10922;45.572;10.002;2023-04-29T05:36:02;16.40;99.90
21522;DHT22;10922;45.572;10.002;2023-04-29T05:38:28;16.40;99.90
21522;DHT22;10922;45.572;10.002;2023-04-29T05:40:57;16.50;99.90
21522;DHT22;10922;45.572;10.002;2023-04-29T05:43:23;16.50;99.90
21522;DHT22;10922;45.572;10.002;2023-04-29T05:45:49;16.50;99.90
21522;DHT22;10922;45.572;10.002;2023-04-29T05:48:17;16.50;99.90
21522;DHT22;10922;45.572;10.002;2023-04-29T05:50:43;16.70;99.90
21522;DHT22;10922;45.572;10.002;2023-04-29T05:53:09;16.80;99.90
21522;DHT22;10922;45.572;10.002;2023-04-29T05:55:35;16.90;99.90
21522;DHT22;10922;45.572;10.002;2023-04-29T05:58:01;17.00;99.90
21522;DHT22;10922;45.572;10.002;2023-04-29T06:00:26;17.10;99.90
21522;DHT22;10922;45.572;10.002;2023-04-29T06:02:52;17.10;99.90
21522;DHT22;10922;45.572;10.002;2023-04-29T06:05:17;17.10;99.90
21522;DHT22;10922;45.572;10.002;2023-04-29T06:07:43;17.10;99.90
21522;DHT22;10922;45.572;10.002;2023-04-29T06:10:09;17.20;99.90
21522;DHT22;10922;45.572;10.002;2023-04-29T06:12:35;17.40;99.90
21522;DHT22;10922;45.572;10.002;2023-04-29T06:15:01;17.40;99.90
21522;DHT22;10922;45.572;10.002;2023-04-29T06:17:26;17.40;99.90
21522;DHT22;10922;45.572;10.002;2023-04-29T06:19:54;17.70;99.90
21522;DHT22;10922;45.572;10.002;2023-04-29T06:22:20;18.00;99.90
21522;DHT22;10922;45.572;10.002;2023-04-29T06:24:46;18.10;99.90
21522;DHT22;10922;45.572;10.002;2023-04-29T06:27:14;18.40;99.90
21522;DHT22;10922;45.572;10.002;2023-04-29T06:29:40;18.30;99.90
21522;DHT22;10922;45.572;10.002;2023-04-29T06:32:06;18.30;99.90
21522;DHT22;10922;45.572;10.002;2023-04-29T06:34:32;18.30;99.90
21522;DHT22;10922;45.572;10.002;2023-04-29T06:36:58;18.10;99.90
21522;DHT22;10922;45.572;10.002;2023-04-29T06:39:23;18.10;99.90
21522;DHT22;10922;45.572;10.002;2023-04-29T06:41:49;18.10;99.90
21522;DHT22;10922;45.572;10.002;2023-04-29T06:44:15;18.00;99.90
21522;DHT22;10922;45.572;10.002;2023-04-29T06:46:42;17.80;99.90
21522;DHT22;10922;45.572;10.002;2023-04-29T06:49:08;18.00;99.90
21522;DHT22;10922;45.572;10.002;2023-04-29T06:51:34;18.00;99.90
21522;DHT22;10922;45.572;10.002;2023-04-29T06:54:01;17.90;99.90
21522;DHT22;10922;45.572;10.002;2023-04-29T06:56:27;17.70;99.90
21522;DHT22;10922;45.572;10.002;2023-04-29T06:58:52;17.80;99.90
21522;DHT22;10922;45.572;10.002;2023-04-29T07:01:18;17.50;99.90
21522;DHT22;10922;45.572;10.002;2023-04-29T07:03:44;17.50;99.90
21522;DHT22;10922;45.572;10.002;2023-04-29T07:06:09;17.50;99.90
21522;DHT22;10922;45.572;10.002;2023-04-29T07:08:35;17.70;99.90
21522;DHT22;10922;45.572;10.002;2023-04-29T07:11:01;18.00;99.90
21522;DHT22;10922;45.572;10.002;2023-04-29T07:13:26;18.00;99.90
21522;DHT22;10922;45.572;10.002;2023-04-29T07:15:52;18.00;99.90
21522;DHT22;10922;45.572;10.002;2023-04-29T07:18:18;17.40;99.90
21522;DHT22;10922;45.572;10.002;2023-04-29T07:20:43;17.50;99.90
21522;DHT22;10922;45.572;10.002;2023-04-29T07:23:10;17.90;99.90
21522;DHT22;10922;45.572;10.002;2023-04-29T07:25:36;18.00;99.90
21522;DHT22;10922;45.572;10.002;2023-04-29T07:28:02;18.20;99.90
21522;DHT22;10922;45.572;10.002;2023-04-29T07:30:27;18.10;99.90
21522;DHT22;10922;45.572;10.002;2023-04-29T07:32:54;18.00;99.90
21522;DHT22;10922;45.572;10.002;2023-04-29T07:35:19;17.70;99.90
21522;DHT22;10922;45.572;10.002;2023-04-29T07:37:45;17.90;99.90
21522;DHT22;10922;45.572;10.002;2023-04-29T07:40:11;18.20;99.90
21522;DHT22;10922;45.572;10.002;2023-04-29T07:42:36;18.10;99.90
21522;DHT22;10922;45.572;10.002;2023-04-29T07:45:02;17.80;99.90
21522;DHT22;10922;45.572;10.002;2023-04-29T07:47:28;17.70;99.90
21522;DHT22;10922;45.572;10.002;2023-04-29T07:49:54;18.20;99.90
21522;DHT22;10922;45.572;10.002;2023-04-29T07:52:19;18.60;99.90
21522;DHT22;10922;45.572;10.002;2023-04-29T07:54:45;18.90;99.90
21522;DHT22;10922;45.572;10.002;2023-04-29T07:57:10;19.30;99.90
21522;DHT22;10922;45.572;10.002;2023-04-29T07:59:36;19.10;99.90
21522;DHT22;10922;45.572;10.002;2023-04-29T08:02:02;18.50;99.90
21522;DHT22;10922;45.572;10.002;2023-04-29T08:04:27;18.50;99.90
21522;DHT22;10922;45.572;10.002;2023-04-29T08:06:53;18.10;99.90
21522;DHT22;10922;45.572;10.002;2023-04-29T08:09:19;18.70;99.90
21522;DHT22;10922;45.572;10.002;2023-04-29T08:11:45;18.60;99.90
21522;DHT22;10922;45.572;10.002;2023-04-29T08:14:11;18.40;99.90
21522;DHT22;10922;45.572;10.002;2023-04-29T08:16:36;18.00;99.90
21522;DHT22;10922;45.572;10.002;2023-04-29T08:19:02;17.80;99.90
21522;DHT22;10922;45.572;10.002;2023-04-29T08:21:28;17.70;99.90
21522;DHT22;10922;45.572;10.002;2023-04-29T08:23:53;18.00;99.90
21522;DHT22;10922;45.572;10.002;2023-04-29T08:26:20;18.10;99.90
21522;DHT22;10922;45.572;10.002;2023-04-29T08:28:46;18.70;99.90
21522;DHT22;10922;45.572;10.002;2023-04-29T08:31:16;18.80;99.90
21522;DHT22;10922;45.572;10.002;2023-04-29T08:33:42;19.00;99.90
21522;DHT22;10922;45.572;10.002;2023-04-29T08:36:08;19.50;99.90
21522;DHT22;10922;45.572;10.002;2023-04-29T08:38:33;19.80;99.90
21522;DHT22;10922;45.572;10.002;2023-04-29T08:41:00;19.90;99.90
21522;DHT22;10922;45.572;10.002;2023-04-29T08:43:26;19.90;99.90
21522;DHT22;10922;45.572;10.002;2023-04-29T08:45:52;20.30;99.90
21522;DHT22;10922;45.572;10.002;2023-04-29T08:48:18;20.20;99.90
21522;DHT22;10922;45.572;10.002;2023-04-29T08:50:44;21.00;99.90
21522;DHT22;10922;45.572;10.002;2023-04-29T08:53:12;21.60;99.90
21522;DHT22;10922;45.572;10.002;2023-04-29T08:55:46;22.20;99.90
21522;DHT22;10922;45.572;10.002;2023-04-29T08:58:13;22.70;99.90
21522;DHT22;10922;45.572;10.002;2023-04-29T09:00:41;22.30;99.90
21522;DHT22;10922;45.572;10.002;2023-04-29T09:03:17;21.90;99.90
21522;DHT22;10922;45.572;10.002;2023-04-29T09:05:47;21.60;99.90
21522;DHT22;10922;45.572;10.002;2023-04-29T09:08:13;21.40;99.90
21522;DHT22;10922;45.572;10.002;2023-04-29T09:10:41;20.70;99.90
21522;DHT22;10922;45.572;10.002;2023-04-29T09:13:07;20.10;99.90
21522;DHT22;10922;45.572;10.002;2023-04-29T09:15:37;20.00;99.90
21522;DHT22;10922;45.572;10.002;2023-04-29T09:18:04;20.20;99.90
21522;DHT22;10922;45.572;10.002;2023-04-29T09:20:30;20.60;99.90
21522;DHT22;10922;45.572;10.002;2023-04-29T09:23:01;20.10;99.90
21522;DHT22;10922;45.572;10.002;2023-04-29T09:25:28;19.10;99.90
21522;DHT22;10922;45.572;10.002;2023-04-29T09:27:54;19.60;99.90
21522;DHT22;10922;45.572;10.002;2023-04-29T09:30:21;19.80;99.90
21522;DHT22;10922;45.572;10.002;2023-04-29T09:33:19;19.90;99.90
21522;DHT22;10922;45.572;10.002;2023-04-29T09:35:45;20.10;99.90
21522;DHT22;10922;45.572;10.002;2023-04-29T09:38:13;20.50;99.90
21522;DHT22;10922;45.572;10.002;2023-04-29T09:40:41;20.60;99.90
21522;DHT22;10922;45.572;10.002;2023-04-29T09:43:12;20.80;99.90
21522;DHT22;10922;45.572;10.002;2023-04-29T09:48:10;20.00;99.90
21522;DHT22;10922;45.572;10.002;2023-04-29T09:50:36;19.60;99.90
21522;DHT22;10922;45.572;10.002;2023-04-29T09:53:04;19.20;99.90
21522;DHT22;10922;45.572;10.002;2023-04-29T09:55:31;19.10;99.90
21522;DHT22;10922;45.572;10.002;2023-04-29T09:57:57;18.60;99.90
21522;DHT22;10922;45.572;10.002;2023-04-29T10:00:23;18.60;99.90
21522;DHT22;10922;45.572;10.002;2023-04-29T10:02:50;18.50;99.90
21522;DHT22;10922;45.572;10.002;2023-04-29T10:05:18;18.60;99.90
21522;DHT22;10922;45.572;10.002;2023-04-29T10:07:46;18.50;99.90
21522;DHT22;10922;45.572;10.002;2023-04-29T10:10:13;18.30;99.90
21522;DHT22;10922;45.572;10.002;2023-04-29T10:12:40;18.40;99.90
21522;DHT22;10922;45.572;10.002;2023-04-29T10:16:27;18.80;99.90
21522;DHT22;10922;45.572;10.002;2023-04-29T10:18:29;18.70;99.90
21522;DHT22;10922;45.572;10.002;2023-04-29T10:20:56;18.50;99.90
21522;DHT22;10922;45.572;10.002;2023-04-29T10:23:25;18.10;99.90
21522;DHT22;10922;45.572;10.002;2023-04-29T10:25:52;18.10;99.90
21522;DHT22;10922;45.572;10.002;2023-04-29T10:28:19;18.20;99.90
21522;DHT22;10922;45.572;10.002;2023-04-29T10:30:50;18.40;99.90
21522;DHT22;10922;45.572;10.002;2023-04-29T10:33:16;18.30;99.90
21522;DHT22;10922;45.572;10.002;2023-04-29T10:35:43;18.60;99.90
21522;DHT22;10922;45.572;10.002;2023-04-29T10:38:25;18.60;99.90
21522;DHT22;10922;45.572;10.002;2023-04-29T10:40:55;18.40;99.90
21522;DHT22;10922;45.572;10.002;2023-04-29T10:43:25;18.40;99.90
21522;DHT22;10922;45.572;10.002;2023-04-29T10:48:48;18.50;99.90
21522;DHT22;10922;45.572;10.002;2023-04-29T10:51:28;18.40;99.90
21522;DHT22;10922;45.572;10.002;2023-04-29T10:54:05;18.70;99.90
21522;DHT22;10922;45.572;10.002;2023-04-29T10:56:52;19.00;99.90
21522;DHT22;10922;45.572;10.002;2023-04-29T11:02:08;19.90;99.90
21522;DHT22;10922;45.572;10.002;2023-04-29T11:04:34;20.60;99.90
21522;DHT22;10922;45.572;10.002;2023-04-29T11:06:59;21.00;99.90
21522;DHT22;10922;45.572;10.002;2023-04-29T11:09:30;20.50;99.90
21522;DHT22;10922;45.572;10.002;2023-04-29T11:12:08;20.10;99.90
21522;DHT22;10922;45.572;10.002;2023-04-29T11:17:13;20.40;99.90
21522;DHT22;10922;45.572;10.002;2023-04-29T11:19:44;20.60;99.90
21522;DHT22;10922;45.572;10.002;2023-04-29T11:27:30;21.50;99.90
21522;DHT22;10922;45.572;10.002;2023-04-29T11:29:57;21.30;99.90
21522;DHT22;10922;45.572;10.002;2023-04-29T11:32:28;21.30;99.90
21522;DHT22;10922;45.572;10.002;2023-04-29T11:34:55;21.40;99.90
21522;DHT22;10922;45.572;10.002;2023-04-29T11:37:23;22.00;99.90
21522;DHT22;10922;45.572;10.002;2023-04-29T11:39:50;22.20;99.90
21522;DHT22;10922;45.572;10.002;2023-04-29T11:42:20;21.70;99.90
21522;DHT22;10922;45.572;10.002;2023-04-29T11:44:46;22.30;99.90
21522;DHT22;10922;45.572;10.002;2023-04-29T11:47:12;23.90;99.90
21522;DHT22;10922;45.572;10.002;2023-04-29T11:49:38;24.60;99.90
21522;DHT22;10922;45.572;10.002;2023-04-29T11:52:04;25.20;99.90
21522;DHT22;10922;45.572;10.002;2023-04-29T11:54:29;24.70;99.90
21522;DHT22;10922;45.572;10.002;2023-04-29T11:56:57;24.20;99.90
21522;DHT22;10922;45.572;10.002;2023-04-29T11:59:23;24.80;99.90
21522;DHT22;10922;45.572;10.002;2023-04-29T12:01:49;25.10;99.90
21522;DHT22;10922;45.572;10.002;2023-04-29T12:04:16;25.40;99.90
21522;DHT22;10922;45.572;10.002;2023-04-29T12:06:42;25.80;99.90
21522;DHT22;10922;45.572;10.002;2023-04-29T12:09:08;26.10;99.90
21522;DHT22;10922;45.572;10.002;2023-04-29T12:11:35;26.10;99.90
21522;DHT22;10922;45.572;10.002;2023-04-29T12:14:02;26.30;99.90
21522;DHT22;10922;45.572;10.002;2023-04-29T12:16:31;25.60;99.90
21522;DHT22;10922;45.572;10.002;2023-04-29T12:18:58;25.10;99.90
21522;DHT22;10922;45.572;10.002;2023-04-29T12:21:24;25.30;99.90
21522;DHT22;10922;45.572;10.002;2023-04-29T12:23:50;24.30;99.90
21522;DHT22;10922;45.572;10.002;2023-04-29T12:26:17;24.00;99.90
21522;DHT22;10922;45.572;10.002;2023-04-29T12:28:45;24.10;99.90
21522;DHT22;10922;45.572;10.002;2023-04-29T12:31:14;24.20;99.90
21522;DHT22;10922;45.572;10.002;2023-04-29T12:33:42;24.50;99.90
21522;DHT22;10922;45.572;10.002;2023-04-29T12:36:16;24.40;99.90
21522;DHT22;10922;45.572;10.002;2023-04-29T12:38:46;24.60;99.90
21522;DHT22;10922;45.572;10.002;2023-04-29T12:41:12;24.50;99.90
21522;DHT22;10922;45.572;10.002;2023-04-29T12:43:42;25.30;99.90
21522;DHT22;10922;45.572;10.002;2023-04-29T12:46:09;24.40;99.90
21522;DHT22;10922;45.572;10.002;2023-04-29T12:48:36;24.70;99.90
21522;DHT22;10922;45.572;10.002;2023-04-29T12:51:08;24.40;99.90
21522;DHT22;10922;45.572;10.002;2023-04-29T12:53:34;23.90;99.90
21522;DHT22;10922;45.572;10.002;2023-04-29T12:56:00;23.80;99.90
21522;DHT22;10922;45.572;10.002;2023-04-29T12:58:29;24.20;99.90
21522;DHT22;10922;45.572;10.002;2023-04-29T13:00:55;24.30;99.90
21522;DHT22;10922;45.572;10.002;2023-04-29T13:03:21;24.90;99.90
21522;DHT22;10922;45.572;10.002;2023-04-29T13:05:48;26.20;99.90
21522;DHT22;10922;45.572;10.002;2023-04-29T13:08:17;27.40;99.90
21522;DHT22;10922;45.572;10.002;2023-04-29T13:10:43;27.60;99.90
21522;DHT22;10922;45.572;10.002;2023-04-29T13:13:08;27.00;99.90
21522;DHT22;10922;45.572;10.002;2023-04-29T13:15:35;26.00;99.90
21522;DHT22;10922;45.572;10.002;2023-04-29T13:18:01;27.20;99.90
21522;DHT22;10922;45.572;10.002;2023-04-29T13:20:27;27.80;99.90
21522;DHT22;10922;45.572;10.002;2023-04-29T13:22:53;27.00;99.90
21522;DHT22;10922;45.572;10.002;2023-04-29T13:25:18;25.90;99.90
21522;DHT22;10922;45.572;10.002;2023-04-29T13:27:44;25.70;99.90
21522;DHT22;10922;45.572;10.002;2023-04-29T13:30:10;26.10;99.90
21522;DHT22;10922;45.572;10.002;2023-04-29T13:32:36;26.60;99.90
21522;DHT22;10922;45.572;10.002;2023-04-29T13:35:02;27.50;99.90
21522;DHT22;10922;45.572;10.002;2023-04-29T13:37:28;26.60;99.90
21522;DHT22;10922;45.572;10.002;2023-04-29T13:39:54;25.20;99.90
21522;DHT22;10922;45.572;10.002;2023-04-29T13:42:20;24.80;99.90
21522;DHT22;10922;45.572;10.002;2023-04-29T13:44:45;25.50;99.90
21522;DHT22;10922;45.572;10.002;2023-04-29T13:47:14;25.20;99.90
21522;DHT22;10922;45.572;10.002;2023-04-29T13:49:41;24.50;99.90
21522;DHT22;10922;45.572;10.002;2023-04-29T13:52:09;24.30;99.90
21522;DHT22;10922;45.572;10.002;2023-04-29T13:54:35;25.00;99.90
21522;DHT22;10922;45.572;10.002;2023-04-29T13:57:01;26.40;99.90
21522;DHT22;10922;45.572;10.002;2023-04-29T13:59:30;26.50;99.90
21522;DHT22;10922;45.572;10.002;2023-04-29T14:01:57;26.70;99.90
21522;DHT22;10922;45.572;10.002;2023-04-29T14:04:24;27.00;99.90
21522;DHT22;10922;45.572;10.002;2023-04-29T14:06:51;26.00;99.90
21522;DHT22;10922;45.572;10.002;2023-04-29T14:09:16;25.50;99.90
21522;DHT22;10922;45.572;10.002;2023-04-29T14:11:44;25.00;99.90
21522;DHT22;10922;45.572;10.002;2023-04-29T14:14:10;24.70;99.90
21522;DHT22;10922;45.572;10.002;2023-04-29T14:16:35;24.90;99.90
21522;DHT22;10922;45.572;10.002;2023-04-29T14:19:02;24.90;99.90
21522;DHT22;10922;45.572;10.002;2023-04-29T14:21:28;24.70;99.90
21522;DHT22;10922;45.572;10.002;2023-04-29T14:23:54;24.60;99.90
21522;DHT22;10922;45.572;10.002;2023-04-29T14:26:20;24.70;99.90
21522;DHT22;10922;45.572;10.002;2023-04-29T14:28:45;24.10;99.90
21522;DHT22;10922;45.572;10.002;2023-04-29T14:31:11;24.20;99.90
21522;DHT22;10922;45.572;10.002;2023-04-29T14:33:38;24.10;99.90
21522;DHT22;10922;45.572;10.002;2023-04-29T14:36:05;24.00;99.90
21522;DHT22;10922;45.572;10.002;2023-04-29T14:38:31;24.10;99.90
21522;DHT22;10922;45.572;10.002;2023-04-29T14:40:57;24.10;99.90
21522;DHT22;10922;45.572;10.002;2023-04-29T14:43:23;24.10;99.90
21522;DHT22;10922;45.572;10.002;2023-04-29T14:45:49;23.60;99.90
21522;DHT22;10922;45.572;10.002;2023-04-29T14:48:14;23.40;99.90
21522;DHT22;10922;45.572;10.002;2023-04-29T14:50:40;23.30;99.90
21522;DHT22;10922;45.572;10.002;2023-04-29T14:53:05;23.10;99.90
21522;DHT22;10922;45.572;10.002;2023-04-29T14:55:33;23.00;99.90
21522;DHT22;10922;45.572;10.002;2023-04-29T14:57:58;23.00;99.90
21522;DHT22;10922;45.572;10.002;2023-04-29T15:00:24;22.90;99.90
21522;DHT22;10922;45.572;10.002;2023-04-29T15:02:49;23.00;99.90
21522;DHT22;10922;45.572;10.002;2023-04-29T15:05:16;23.20;99.90
21522;DHT22;10922;45.572;10.002;2023-04-29T15:07:42;23.10;99.90
21522;DHT22;10922;45.572;10.002;2023-04-29T15:10:08;23.20;99.90
21522;DHT22;10922;45.572;10.002;2023-04-29T15:12:34;23.00;99.90
21522;DHT22;10922;45.572;10.002;2023-04-29T15:14:59;23.50;99.90
21522;DHT22;10922;45.572;10.002;2023-04-29T15:17:25;22.90;99.90
21522;DHT22;10922;45.572;10.002;2023-04-29T15:19:51;22.80;99.90
21522;DHT22;10922;45.572;10.002;2023-04-29T15:22:16;23.20;99.90
21522;DHT22;10922;45.572;10.002;2023-04-29T15:24:42;22.60;99.90
21522;DHT22;10922;45.572;10.002;2023-04-29T15:27:08;22.20;99.90
21522;DHT22;10922;45.572;10.002;2023-04-29T15:29:33;21.90;99.90
21522;DHT22;10922;45.572;10.002;2023-04-29T15:32:01;21.90;99.90
21522;DHT22;10922;45.572;10.002;2023-04-29T15:34:27;22.00;99.90
21522;DHT22;10922;45.572;10.002;2023-04-29T15:36:53;21.90;99.90
21522;DHT22;10922;45.572;10.002;2023-04-29T15:39:20;21.70;99.90